Time;durP1;ratioP1;P1;durP2;ratioP2;P2;SDS_P1;SDS_P2;PMS_P1;PMS_P2;Temp;Humidity;BMP_temperature;BMP_pressure;BME280_temperature;BME280_humidity;BME280_pressure;Samples;Min_cycle;Max_cycle;Signal;HPM_P1;HPM_P2
2023/10/26 00:00:28;;;;;;;46.63;25.55;;;11.20;99.90;;;;;;5058105;28;20036;-55
2023/10/26 00:02:54;;;;;;;45.45;23.17;;;11.20;99.90;;;;;;5061197;28;20029;-54
2023/10/26 00:05:20;;;;;;;44.60;23.48;;;11.20;99.90;;;;;;5062801;28;20588;-57
2023/10/26 00:07:46;;;;;;;46.15;24.05;;;11.20;99.90;;;;;;5064190;28;20406;-55
2023/10/26 00:10:12;;;;;;;44.47;23.25;;;11.20;99.90;;;;;;5067869;28;20029;-52
2023/10/26 00:12:37;;;;;;;47.55;22.40;;;11.20;99.90;;;;;;5059224;28;20032;-56
2023/10/26 00:15:03;;;;;;;47.53;23.17;;;11.20;99.90;;;;;;5063217;28;20070;-55
2023/10/26 00:17:29;;;;;;;43.58;22.58;;;11.20;99.90;;;;;;5062271;28;20032;-56
2023/10/26 00:19:54;;;;;;;45.92;23.48;;;11.10;99.90;;;;;;5061689;28;20029;-55
2023/10/26 00:22:21;;;;;;;43.78;22.75;;;11.10;99.90;;;;;;5062284;28;20392;-56
2023/10/26 00:24:47;;;;;;;51.22;24.95;;;11.10;99.90;;;;;;5062314;28;20031;-56
2023/10/26 00:27:14;;;;;;;52.63;24.23;;;11.10;99.90;;;;;;5059307;28;20115;-57
2023/10/26 00:29:40;;;;;;;46.88;24.23;;;11.10;99.90;;;;;;5062476;28;20036;-53
2023/10/26 00:32:06;;;;;;;47.03;22.08;;;11.10;99.90;;;;;;5062156;28;20056;-55
2023/10/26 00:34:33;;;;;;;45.85;22.08;;;11.10;99.90;;;;;;5062207;28;20037;-55
2023/10/26 00:36:58;;;;;;;43.25;21.58;;;11.10;99.90;;;;;;5063022;28;20048;-55
2023/10/26 00:39:24;;;;;;;46.28;22.52;;;11.10;99.90;;;;;;5066164;28;20109;-51
2023/10/26 00:41:50;;;;;;;50.47;23.25;;;11.00;99.90;;;;;;5055309;28;20407;-52
2023/10/26 00:44:16;;;;;;;49.33;24.02;;;11.00;99.90;;;;;;5069511;28;20043;-57
2023/10/26 00:46:41;;;;;;;43.38;23.60;;;11.00;99.90;;;;;;5058650;28;20032;-58
2023/10/26 00:49:10;;;;;;;47.40;24.02;;;11.00;99.90;;;;;;5065282;28;20494;-62
2023/10/26 00:51:35;;;;;;;46.83;23.35;;;11.00;99.90;;;;;;5061166;28;20033;-59
2023/10/26 00:54:02;;;;;;;57.88;25.55;;;11.00;99.90;;;;;;5064950;28;20017;-59
2023/10/26 00:56:28;;;;;;;47.40;22.95;;;11.00;99.90;;;;;;5060911;28;21212;-57
2023/10/26 00:58:56;;;;;;;51.88;23.90;;;11.00;99.90;;;;;;5061507;28;20024;-57
2023/10/26 01:01:23;;;;;;;53.55;25.85;;;11.00;99.90;;;;;;5061217;28;20024;-57
2023/10/26 01:03:50;;;;;;;49.22;24.63;;;10.90;99.90;;;;;;5064150;28;20037;-57
2023/10/26 01:06:16;;;;;;;57.10;25.17;;;10.90;99.90;;;;;;5065098;28;20498;-56
2023/10/26 01:08:42;;;;;;;47.75;24.55;;;10.90;99.90;;;;;;5063219;28;20048;-57
2023/10/26 01:11:07;;;;;;;52.45;24.67;;;11.00;99.90;;;;;;5064559;28;20033;-57
2023/10/26 01:13:33;;;;;;;56.13;25.75;;;11.00;99.90;;;;;;5065381;28;20388;-57
2023/10/26 01:16:01;;;;;;;52.20;24.60;;;11.00;99.90;;;;;;5059972;28;20051;-55
2023/10/26 01:18:26;;;;;;;59.03;25.58;;;10.90;99.90;;;;;;5063872;28;20013;-58
2023/10/26 01:20:54;;;;;;;58.28;24.98;;;10.90;99.90;;;;;;5059994;28;20024;-58
2023/10/26 01:23:19;;;;;;;57.85;27.40;;;10.90;99.90;;;;;;5063439;28;20027;-54
2023/10/26 01:25:50;;;;;;;54.40;26.70;;;10.90;99.90;;;;;;5059958;28;20387;-58
2023/10/26 01:28:17;;;;;;;56.38;27.33;;;10.90;99.90;;;;;;5060277;28;20021;-56
2023/10/26 01:30:43;;;;;;;58.75;26.40;;;10.90;99.90;;;;;;5062906;28;20016;-58
2023/10/26 01:33:09;;;;;;;52.67;25.92;;;10.90;99.90;;;;;;5060994;28;20027;-54
2023/10/26 01:35:38;;;;;;;49.92;24.48;;;10.90;99.90;;;;;;5060288;28;20090;-55
2023/10/26 01:38:04;;;;;;;59.63;25.95;;;10.90;99.90;;;;;;5058853;28;21048;-56
2023/10/26 01:40:29;;;;;;;54.47;27.00;;;10.90;99.90;;;;;;5059586;28;20447;-58
2023/10/26 01:42:55;;;;;;;57.72;27.75;;;10.90;99.90;;;;;;5059601;28;20040;-58
2023/10/26 01:45:21;;;;;;;54.70;26.33;;;10.90;99.90;;;;;;5061014;28;20046;-55
2023/10/26 01:47:46;;;;;;;58.35;27.90;;;10.90;99.90;;;;;;5057910;28;20032;-56
2023/10/26 01:50:12;;;;;;;55.25;26.10;;;10.90;99.90;;;;;;5060604;28;20150;-55
2023/10/26 01:52:37;;;;;;;61.20;27.27;;;10.90;99.90;;;;;;5058701;28;20025;-58
2023/10/26 01:55:03;;;;;;;54.03;27.30;;;10.90;99.90;;;;;;5062274;28;20016;-57
2023/10/26 01:57:29;;;;;;;64.47;28.30;;;10.90;99.90;;;;;;5056274;28;20060;-56
2023/10/26 01:59:55;;;;;;;55.75;26.55;;;10.90;99.90;;;;;;5062672;28;20025;-59
2023/10/26 02:02:21;;;;;;;56.50;26.95;;;10.80;99.90;;;;;;5057673;28;20067;-57
2023/10/26 02:04:47;;;;;;;55.75;27.63;;;10.80;99.90;;;;;;5064049;28;20686;-54
2023/10/26 02:07:12;;;;;;;60.72;28.15;;;10.80;99.90;;;;;;5055835;28;20024;-57
2023/10/26 02:09:38;;;;;;;56.35;25.95;;;10.80;99.90;;;;;;5062480;28;20039;-57
2023/10/26 02:12:03;;;;;;;61.05;28.50;;;10.80;99.90;;;;;;5056545;28;20025;-56
2023/10/26 02:14:29;;;;;;;58.70;28.48;;;10.80;99.90;;;;;;5062190;28;20389;-55
2023/10/26 02:16:54;;;;;;;59.58;28.88;;;10.80;99.90;;;;;;5057621;28;20032;-58
2023/10/26 02:19:20;;;;;;;62.55;28.92;;;10.80;99.90;;;;;;5063177;28;20111;-56
2023/10/26 02:21:46;;;;;;;59.05;28.52;;;10.80;99.90;;;;;;5058914;28;20127;-57
2023/10/26 02:24:12;;;;;;;60.83;29.55;;;10.80;99.90;;;;;;5061515;28;20062;-59
2023/10/26 02:26:37;;;;;;;59.55;29.33;;;10.80;99.90;;;;;;5059352;28;20063;-54
2023/10/26 02:29:03;;;;;;;62.05;28.33;;;10.80;99.90;;;;;;5063856;28;20098;-56
2023/10/26 02:31:28;;;;;;;60.83;29.05;;;10.80;99.90;;;;;;5057933;28;20385;-57
2023/10/26 02:33:54;;;;;;;56.38;27.45;;;10.80;99.90;;;;;;5063748;28;20108;-58
2023/10/26 02:36:19;;;;;;;57.42;28.25;;;10.90;99.90;;;;;;5057109;28;20276;-57
2023/10/26 02:38:45;;;;;;;62.92;30.73;;;10.90;99.90;;;;;;5062645;28;20502;-59
2023/10/26 02:41:10;;;;;;;64.30;29.98;;;10.90;99.90;;;;;;5059589;28;20053;-58
2023/10/26 02:43:36;;;;;;;63.35;30.20;;;10.80;99.90;;;;;;5063392;28;20033;-54
2023/10/26 02:46:05;;;;;;;61.13;28.88;;;10.90;99.90;;;;;;5059042;28;20028;-59
2023/10/26 02:48:31;;;;;;;68.90;30.50;;;10.80;99.90;;;;;;5064941;28;20083;-51
2023/10/26 02:50:57;;;;;;;67.95;31.17;;;10.80;99.90;;;;;;5059328;28;20515;-58
2023/10/26 02:53:22;;;;;;;74.03;31.35;;;10.90;99.90;;;;;;5059453;28;20167;-57
2023/10/26 02:55:48;;;;;;;62.83;30.55;;;10.80;99.90;;;;;;5061587;28;20032;-56
2023/10/26 02:58:13;;;;;;;70.82;31.67;;;10.80;99.90;;;;;;5057688;28;20483;-53
2023/10/26 03:00:39;;;;;;;66.95;29.65;;;10.80;99.90;;;;;;5060658;28;20443;-52
2023/10/26 03:03:05;;;;;;;64.57;29.48;;;10.80;99.90;;;;;;5055865;28;20047;-54
2023/10/26 03:05:30;;;;;;;57.08;28.88;;;10.80;99.90;;;;;;5068763;28;20032;-57
2023/10/26 03:07:56;;;;;;;71.15;32.10;;;10.80;99.90;;;;;;5060405;28;20108;-58
2023/10/26 03:10:22;;;;;;;67.75;29.42;;;10.80;99.90;;;;;;5062209;28;20017;-54
2023/10/26 03:12:49;;;;;;;74.03;32.15;;;10.80;99.90;;;;;;5052640;28;20021;-57
2023/10/26 03:15:15;;;;;;;66.38;31.35;;;10.80;99.90;;;;;;5065257;28;20020;-58
2023/10/26 03:17:40;;;;;;;66.53;29.77;;;10.80;99.90;;;;;;5057941;28;20044;-57
2023/10/26 03:20:06;;;;;;;65.70;30.23;;;10.80;99.90;;;;;;5058376;28;20036;-57
2023/10/26 03:22:34;;;;;;;66.57;30.30;;;10.80;99.90;;;;;;5060509;28;20402;-54
2023/10/26 03:25:00;;;;;;;69.53;32.00;;;10.80;99.90;;;;;;5058683;28;20059;-58
2023/10/26 03:27:25;;;;;;;73.72;32.80;;;10.90;99.90;;;;;;5056045;28;20025;-57
2023/10/26 03:29:51;;;;;;;70.65;33.05;;;10.90;99.90;;;;;;5057078;28;20021;-57
2023/10/26 03:32:16;;;;;;;69.30;32.83;;;10.90;99.90;;;;;;5055672;28;20514;-58
2023/10/26 03:34:42;;;;;;;66.55;29.88;;;10.90;99.90;;;;;;5058824;28;20092;-57
2023/10/26 03:37:08;;;;;;;62.63;30.15;;;10.80;99.90;;;;;;5056743;28;20098;-58
2023/10/26 03:39:34;;;;;;;73.00;33.00;;;10.80;99.90;;;;;;5054342;28;20031;-53
2023/10/26 03:42:00;;;;;;;68.60;31.52;;;10.80;99.90;;;;;;5052865;28;20032;-58
2023/10/26 03:44:25;;;;;;;66.13;31.05;;;10.80;99.90;;;;;;5054591;28;20017;-55
2023/10/26 03:46:52;;;;;;;60.17;28.40;;;10.80;99.90;;;;;;5059659;28;20487;-58
2023/10/26 03:49:19;;;;;;;66.15;29.40;;;10.80;99.90;;;;;;5060487;28;20024;-57
2023/10/26 03:51:45;;;;;;;63.65;28.98;;;10.80;99.90;;;;;;5058762;28;20020;-52
2023/10/26 03:54:10;;;;;;;63.22;29.05;;;10.80;99.90;;;;;;5055787;28;20070;-57
2023/10/26 03:56:36;;;;;;;65.72;30.48;;;10.80;99.90;;;;;;5062559;28;20039;-58
2023/10/26 03:59:02;;;;;;;62.35;30.17;;;10.80;99.90;;;;;;5056333;28;20021;-58
2023/10/26 04:01:28;;;;;;;64.60;31.20;;;10.80;99.90;;;;;;5059082;28;20534;-59
2023/10/26 04:03:53;;;;;;;65.88;30.13;;;10.80;99.90;;;;;;5052558;28;20099;-58
2023/10/26 04:06:19;;;;;;;60.45;30.20;;;10.80;99.90;;;;;;5064981;28;20482;-59
2023/10/26 04:08:44;;;;;;;64.75;32.08;;;10.80;99.90;;;;;;5058642;28;20048;-56
2023/10/26 04:11:17;;;;;;;65.13;29.48;;;10.80;99.90;;;;;;5051449;28;20119;-52
2023/10/26 04:13:42;;;;;;;55.17;28.67;;;10.80;99.90;;;;;;5057892;28;20036;-58
2023/10/26 04:16:08;;;;;;;63.63;29.38;;;10.80;99.90;;;;;;5059047;28;20414;-54
2023/10/26 04:18:33;;;;;;;56.65;27.70;;;10.80;99.90;;;;;;5055989;28;20021;-56
2023/10/26 04:20:59;;;;;;;60.53;30.27;;;10.80;99.90;;;;;;5065932;28;20033;-57
2023/10/26 04:23:25;;;;;;;60.05;28.17;;;10.80;99.90;;;;;;5063794;28;20587;-56
2023/10/26 04:25:52;;;;;;;55.47;27.77;;;10.80;99.90;;;;;;5058732;28;20120;-58
2023/10/26 04:28:18;;;;;;;57.97;28.15;;;10.80;99.90;;;;;;5054351;28;20119;-57
2023/10/26 04:30:49;;;;;;;52.72;27.50;;;10.90;99.90;;;;;;5058706;28;20020;-56
2023/10/26 04:33:16;;;;;;;56.65;27.23;;;10.80;99.90;;;;;;5059359;28;20057;-58
2023/10/26 04:35:43;;;;;;;54.88;26.33;;;10.80;99.90;;;;;;5063604;28;20036;-58
2023/10/26 04:38:09;;;;;;;54.70;26.40;;;10.80;99.90;;;;;;5061307;28;20569;-57
2023/10/26 04:40:35;;;;;;;52.50;24.13;;;10.90;99.90;;;;;;5065097;28;20032;-60
2023/10/26 04:43:02;;;;;;;53.45;24.83;;;10.90;99.90;;;;;;5062257;28;20041;-58
2023/10/26 04:45:27;;;;;;;48.75;25.98;;;10.90;99.90;;;;;;5060126;28;20478;-58
2023/10/26 04:47:53;;;;;;;49.88;24.83;;;10.90;99.90;;;;;;5060719;28;20087;-55
2023/10/26 04:50:18;;;;;;;50.08;24.80;;;10.90;99.90;;;;;;5053204;28;20024;-55
2023/10/26 04:52:44;;;;;;;53.47;25.65;;;10.90;99.90;;;;;;5063129;28;20103;-57
2023/10/26 04:55:10;;;;;;;48.33;24.80;;;10.80;99.90;;;;;;5062082;28;20029;-57
2023/10/26 04:57:35;;;;;;;48.47;24.23;;;10.90;99.90;;;;;;5061554;28;20372;-55
2023/10/26 05:00:01;;;;;;;48.42;23.33;;;10.90;99.90;;;;;;5062494;28;20060;-58
2023/10/26 05:02:26;;;;;;;61.63;25.73;;;10.90;99.90;;;;;;5056408;28;20035;-58
2023/10/26 05:04:52;;;;;;;46.08;23.23;;;10.80;99.90;;;;;;5054002;28;20548;-59
2023/10/26 05:07:17;;;;;;;56.55;26.65;;;10.80;99.90;;;;;;5055568;28;20037;-55
2023/10/26 05:09:43;;;;;;;54.10;25.38;;;10.80;99.90;;;;;;5056001;28;20068;-55
2023/10/26 05:12:08;;;;;;;59.85;26.50;;;10.70;99.90;;;;;;5056220;28;20036;-58
2023/10/26 05:14:34;;;;;;;57.17;27.20;;;10.80;99.90;;;;;;5060259;28;20051;-55
2023/10/26 05:16:59;;;;;;;59.85;28.23;;;10.70;99.90;;;;;;5056520;28;20029;-57
2023/10/26 05:19:25;;;;;;;60.03;26.85;;;10.70;99.90;;;;;;5063461;28;20064;-58
2023/10/26 05:21:51;;;;;;;59.15;27.90;;;10.80;99.90;;;;;;5055620;28;20131;-59
2023/10/26 05:24:17;;;;;;;61.67;30.25;;;10.80;99.90;;;;;;5064949;28;20534;-55
2023/10/26 05:26:42;;;;;;;63.60;28.33;;;10.70;99.90;;;;;;5064599;28;20020;-58
2023/10/26 05:29:08;;;;;;;65.13;29.73;;;10.70;99.90;;;;;;5055580;28;20028;-58
2023/10/26 05:31:33;;;;;;;66.75;30.17;;;10.70;99.90;;;;;;5064341;28;20064;-58
2023/10/26 05:33:59;;;;;;;66.85;30.10;;;10.80;99.90;;;;;;5059718;28;20033;-58
2023/10/26 05:36:24;;;;;;;67.50;31.17;;;10.80;99.90;;;;;;5060433;28;20024;-57
2023/10/26 05:38:50;;;;;;;60.85;28.67;;;10.70;99.90;;;;;;5059457;28;20017;-56
2023/10/26 05:41:16;;;;;;;57.75;27.23;;;10.70;99.90;;;;;;5066601;28;20360;-58
2023/10/26 05:43:41;;;;;;;72.40;29.63;;;10.70;99.90;;;;;;5061489;28;20052;-56
2023/10/26 05:46:07;;;;;;;61.17;27.80;;;10.70;99.90;;;;;;5054372;28;20051;-57
2023/10/26 05:48:33;;;;;;;65.10;29.13;;;10.60;99.90;;;;;;5061087;28;20041;-56
2023/10/26 05:50:59;;;;;;;58.53;27.60;;;10.70;99.90;;;;;;5057820;28;20025;-55
2023/10/26 05:53:25;;;;;;;64.38;28.75;;;10.60;99.90;;;;;;5062719;28;20433;-58
2023/10/26 05:55:59;;;;;;;62.10;28.25;;;10.70;99.90;;;;;;5058084;28;20110;-56
2023/10/26 05:58:26;;;;;;;63.38;28.30;;;10.60;99.90;;;;;;5062770;28;20059;-56
2023/10/26 06:00:52;;;;;;;58.03;28.40;;;10.70;99.90;;;;;;5061560;28;20036;-57
2023/10/26 06:03:18;;;;;;;57.78;26.98;;;10.70;99.90;;;;;;5055749;28;20063;-58
2023/10/26 06:05:43;;;;;;;59.47;28.10;;;10.70;99.90;;;;;;5054220;28;20055;-58
2023/10/26 06:08:09;;;;;;;66.30;28.77;;;10.60;99.90;;;;;;5066194;28;20029;-56
2023/10/26 06:10:34;;;;;;;62.55;28.50;;;10.60;99.90;;;;;;5052559;28;20033;-57
2023/10/26 06:13:00;;;;;;;66.75;29.00;;;10.50;99.90;;;;;;5059779;28;20028;-57
2023/10/26 06:15:26;;;;;;;61.97;26.30;;;10.60;99.90;;;;;;5065872;28;20040;-58
2023/10/26 06:17:51;;;;;;;67.13;27.85;;;10.70;99.90;;;;;;5054867;28;20025;-58
2023/10/26 06:20:17;;;;;;;58.88;27.50;;;10.60;99.90;;;;;;5072785;28;20115;-58
2023/10/26 06:22:42;;;;;;;60.53;27.85;;;10.60;99.90;;;;;;5059890;28;20028;-54
2023/10/26 06:25:08;;;;;;;64.53;26.77;;;10.60;99.90;;;;;;5052727;28;20033;-55
2023/10/26 06:27:34;;;;;;;61.42;27.15;;;10.60;99.90;;;;;;5062387;28;20028;-56
2023/10/26 06:30:00;;;;;;;57.63;26.02;;;10.60;99.90;;;;;;5058957;28;20565;-58
2023/10/26 06:32:25;;;;;;;67.68;28.20;;;10.60;99.90;;;;;;5061785;28;20016;-55
2023/10/26 06:34:51;;;;;;;63.65;28.35;;;10.60;99.90;;;;;;5062973;28;20067;-56
2023/10/26 06:37:17;;;;;;;55.63;25.40;;;10.60;99.90;;;;;;5062411;28;20052;-58
2023/10/26 06:39:42;;;;;;;55.15;24.63;;;10.60;99.90;;;;;;5060044;28;20036;-57
2023/10/26 06:42:08;;;;;;;61.67;28.15;;;10.60;99.90;;;;;;5055668;28;20024;-56
2023/10/26 06:44:33;;;;;;;60.67;27.13;;;10.60;99.90;;;;;;5054922;28;20039;-55
2023/10/26 06:46:59;;;;;;;67.57;29.20;;;10.60;99.90;;;;;;5054596;28;20036;-53
2023/10/26 06:49:24;;;;;;;57.58;26.77;;;10.50;99.90;;;;;;5068851;28;20372;-55
2023/10/26 06:51:50;;;;;;;59.53;27.05;;;10.60;99.90;;;;;;5064100;28;20047;-56
2023/10/26 06:54:16;;;;;;;65.60;29.17;;;10.60;99.90;;;;;;5066499;28;20483;-52
2023/10/26 06:56:42;;;;;;;63.85;28.90;;;10.60;99.90;;;;;;5060999;28;20040;-56
2023/10/26 06:59:08;;;;;;;69.47;27.55;;;10.60;99.90;;;;;;5054793;28;20100;-55
2023/10/26 07:01:34;;;;;;;61.35;26.63;;;10.70;99.90;;;;;;5054278;28;20118;-56
2023/10/26 07:03:59;;;;;;;67.03;29.45;;;10.80;99.90;;;;;;5063425;28;20100;-57
2023/10/26 07:06:25;;;;;;;61.22;27.17;;;10.80;99.90;;;;;;5056486;28;20036;-58
2023/10/26 07:08:51;;;;;;;59.63;26.83;;;10.70;99.90;;;;;;5060483;28;20463;-54
2023/10/26 07:11:17;;;;;;;58.95;26.50;;;10.70;99.90;;;;;;5068964;28;20040;-56
2023/10/26 07:13:45;;;;;;;68.70;28.08;;;10.70;99.90;;;;;;5061172;28;20096;-53
2023/10/26 07:16:11;;;;;;;60.42;27.67;;;10.70;99.90;;;;;;5059129;28;20078;-55
2023/10/26 07:18:37;;;;;;;62.90;26.15;;;10.70;99.90;;;;;;5056768;28;20025;-57
2023/10/26 07:21:06;;;;;;;60.08;27.42;;;10.80;99.90;;;;;;5059140;28;20025;-52
2023/10/26 07:23:33;;;;;;;63.70;26.70;;;10.80;99.90;;;;;;5063244;28;20036;-53
2023/10/26 07:25:58;;;;;;;55.97;25.42;;;10.90;99.90;;;;;;5061569;28;20102;-54
2023/10/26 07:28:24;;;;;;;54.50;26.52;;;10.90;99.90;;;;;;5060614;28;20025;-52
2023/10/26 07:30:50;;;;;;;56.53;25.50;;;11.00;99.90;;;;;;5061441;28;20029;-54
2023/10/26 07:33:18;;;;;;;46.95;22.73;;;11.00;99.90;;;;;;5058580;28;20021;-56
2023/10/26 07:35:50;;;;;;;55.22;25.60;;;11.00;99.90;;;;;;5066647;28;20082;-52
2023/10/26 07:38:16;;;;;;;58.40;26.88;;;11.00;99.90;;;;;;5055531;28;20028;-53
2023/10/26 07:40:52;;;;;;;62.28;26.10;;;11.00;99.90;;;;;;5067211;28;20028;-59
2023/10/26 07:43:17;;;;;;;61.67;26.65;;;11.00;99.90;;;;;;5057926;28;20036;-56
2023/10/26 07:45:44;;;;;;;53.92;26.20;;;11.00;99.90;;;;;;5050954;28;20025;-53
2023/10/26 07:48:10;;;;;;;52.35;24.67;;;10.90;99.90;;;;;;5054709;28;20025;-57
2023/10/26 07:50:35;;;;;;;59.95;26.98;;;11.00;99.90;;;;;;5064452;28;20081;-51
2023/10/26 07:53:01;;;;;;;57.67;26.48;;;11.10;99.90;;;;;;5056440;28;20605;-56
2023/10/26 07:55:26;;;;;;;53.15;27.55;;;11.20;99.90;;;;;;5064653;28;20547;-53
2023/10/26 07:57:53;;;;;;;56.85;25.55;;;11.30;99.90;;;;;;5057793;28;20032;-56
2023/10/26 08:00:19;;;;;;;54.30;25.95;;;11.30;99.90;;;;;;5062377;28;20035;-57
2023/10/26 08:02:44;;;;;;;51.90;26.15;;;11.30;99.90;;;;;;5050334;28;20024;-55
2023/10/26 08:05:12;;;;;;;57.40;25.98;;;11.30;99.90;;;;;;5058439;28;20065;-57
2023/10/26 08:07:38;;;;;;;58.47;28.17;;;11.40;99.90;;;;;;5058436;28;20103;-58
2023/10/26 08:10:04;;;;;;;55.85;26.30;;;11.40;99.90;;;;;;5060496;28;20167;-56
2023/10/26 08:12:30;;;;;;;57.63;28.17;;;11.40;99.90;;;;;;5056207;28;20033;-57
2023/10/26 08:14:57;;;;;;;54.42;27.27;;;11.30;99.90;;;;;;5058323;28;20033;-57
2023/10/26 08:17:24;;;;;;;58.25;26.60;;;11.20;99.90;;;;;;5059170;28;20017;-58
2023/10/26 08:19:53;;;;;;;60.25;28.30;;;11.20;99.90;;;;;;5058958;28;20024;-55
2023/10/26 08:22:20;;;;;;;50.53;26.90;;;11.20;99.90;;;;;;5060866;28;20521;-54
2023/10/26 08:24:47;;;;;;;53.20;26.67;;;11.30;99.90;;;;;;5060482;28;20024;-57
2023/10/26 08:27:12;;;;;;;53.75;28.75;;;11.40;99.90;;;;;;5055633;28;20031;-59
2023/10/26 08:29:38;;;;;;;60.78;28.38;;;11.50;99.90;;;;;;5064615;28;20032;-59
2023/10/26 08:32:04;;;;;;;59.05;28.83;;;11.50;99.90;;;;;;5067820;28;20150;-58
2023/10/26 08:34:29;;;;;;;52.58;26.67;;;11.60;99.90;;;;;;5064337;28;20020;-58
2023/10/26 08:36:55;;;;;;;52.95;27.88;;;11.70;99.90;;;;;;5055626;28;20029;-56
2023/10/26 08:39:20;;;;;;;56.00;27.20;;;11.70;99.90;;;;;;5058111;28;20025;-57
2023/10/26 08:41:54;;;;;;;60.92;28.85;;;11.80;99.90;;;;;;5056105;28;20036;-58
2023/10/26 08:44:20;;;;;;;59.42;28.60;;;11.60;99.90;;;;;;5063570;28;20068;-55
2023/10/26 08:46:48;;;;;;;53.15;26.85;;;11.60;99.90;;;;;;5058357;28;20448;-55
2023/10/26 08:49:15;;;;;;;58.40;29.17;;;11.70;99.90;;;;;;5059179;28;20032;-57
2023/10/26 08:51:42;;;;;;;56.65;28.35;;;11.60;99.90;;;;;;5055834;28;20414;-56
2023/10/26 08:54:07;;;;;;;51.03;27.38;;;11.60;99.90;;;;;;5057231;28;20024;-54
2023/10/26 08:56:33;;;;;;;48.30;25.67;;;11.70;99.90;;;;;;5060047;28;20124;-58
2023/10/26 08:58:59;;;;;;;57.90;27.25;;;11.80;99.90;;;;;;5065557;28;20020;-53
2023/10/26 09:01:25;;;;;;;52.15;27.27;;;11.70;99.90;;;;;;5057827;28;20033;-57
2023/10/26 09:03:51;;;;;;;56.53;28.20;;;11.80;99.90;;;;;;5055550;28;20029;-54
2023/10/26 09:06:17;;;;;;;57.78;28.45;;;11.90;99.90;;;;;;5055993;28;20029;-57
2023/10/26 09:08:43;;;;;;;55.78;27.77;;;11.80;99.90;;;;;;5064130;28;20453;-53
2023/10/26 09:11:22;;;;;;;55.72;30.33;;;11.80;99.90;;;;;;5056882;28;20114;-58
2023/10/26 09:13:50;;;;;;;53.38;27.38;;;11.80;99.90;;;;;;5058004;28;20107;-58
2023/10/26 09:16:16;;;;;;;52.78;27.30;;;11.70;99.90;;;;;;5057305;28;20028;-58
2023/10/26 09:18:50;;;;;;;50.05;26.40;;;11.70;99.90;;;;;;5052971;28;20029;-54
2023/10/26 09:21:16;;;;;;;52.15;26.92;;;11.70;99.90;;;;;;5063363;28;20024;-58
2023/10/26 09:23:42;;;;;;;50.63;25.88;;;11.70;99.90;;;;;;5066476;28;20059;-57
2023/10/26 09:26:09;;;;;;;48.63;24.48;;;11.70;99.90;;;;;;5060364;28;20083;-57
2023/10/26 09:28:52;;;;;;;53.15;26.23;;;11.60;99.90;;;;;;5054152;28;20025;-56
2023/10/26 09:31:18;;;;;;;58.40;28.20;;;11.70;99.90;;;;;;5058612;28;20027;-58
2023/10/26 09:33:44;;;;;;;47.20;25.92;;;11.70;99.90;;;;;;5053854;28;20033;-57
2023/10/26 09:36:15;;;;;;;50.03;26.58;;;11.80;99.90;;;;;;5052818;28;20017;-55
2023/10/26 09:38:41;;;;;;;47.35;24.80;;;11.90;99.90;;;;;;5053257;28;20092;-57
2023/10/26 09:41:15;;;;;;;58.13;26.95;;;12.00;99.90;;;;;;5066727;28;20082;-57
2023/10/26 09:43:41;;;;;;;54.08;26.35;;;12.00;99.90;;;;;;5060105;28;20082;-59
2023/10/26 09:46:07;;;;;;;53.28;26.00;;;12.10;99.90;;;;;;5064474;28;20036;-58
2023/10/26 09:48:33;;;;;;;52.88;27.75;;;12.20;99.90;;;;;;5067920;28;20032;-59
2023/10/26 09:51:01;;;;;;;53.10;26.77;;;12.30;99.90;;;;;;5061469;28;20562;-57
2023/10/26 09:53:39;;;;;;;58.55;28.27;;;12.40;99.90;;;;;;5054782;28;20372;-58
2023/10/26 09:56:08;;;;;;;57.17;29.65;;;12.40;99.90;;;;;;5066554;28;20100;-59
2023/10/26 09:58:40;;;;;;;46.10;23.77;;;12.40;99.90;;;;;;5060855;28;20386;-59
2023/10/26 10:01:37;;;;;;;26.42;15.50;;;12.50;99.90;;;;;;5057881;28;20048;-56
2023/10/26 10:04:10;;;;;;;22.90;12.70;;;12.70;99.90;;;;;;5060963;28;20021;-52
2023/10/26 10:06:53;;;;;;;22.90;12.63;;;12.70;99.90;;;;;;5053921;28;20033;-52
2023/10/26 10:09:23;;;;;;;22.35;12.20;;;12.80;99.90;;;;;;5052884;28;20603;-58
2023/10/26 10:12:13;;;;;;;28.33;13.02;;;13.00;99.90;;;;;;5058175;28;20028;-57
2023/10/26 10:14:48;;;;;;;14.85;9.52;;;13.00;99.90;;;;;;5061580;28;20516;-57
2023/10/26 10:17:17;;;;;;;;;;;13.00;99.90;;;;;;5060894;28;20032;-58
2023/10/26 10:19:46;;;;;;;12.57;7.95;;;13.00;99.90;;;;;;5059736;28;19912;-59
2023/10/26 10:22:33;;;;;;;12.32;8.02;;;13.10;99.90;;;;;;5059690;28;20047;-59
2023/10/26 10:24:59;;;;;;;12.85;7.20;;;13.20;99.90;;;;;;5056837;28;20021;-58
2023/10/26 10:27:24;;;;;;;13.15;7.50;;;12.80;99.90;;;;;;5057530;28;20020;-54
2023/10/26 10:29:50;;;;;;;13.20;7.35;;;12.70;99.90;;;;;;5058952;28;20021;-57
2023/10/26 10:32:49;;;;;;;10.10;6.85;;;12.70;99.90;;;;;;5056945;28;20390;-56
2023/10/26 10:35:46;;;;;;;9.85;6.88;;;12.80;99.90;;;;;;5067230;28;20100;-52
2023/10/26 10:38:11;;;;;;;14.05;8.48;;;13.00;99.90;;;;;;5057330;28;20067;-59
2023/10/26 10:40:38;;;;;;;21.60;13.75;;;13.30;99.90;;;;;;5068438;28;20063;-55
2023/10/26 10:43:04;;;;;;;22.95;12.77;;;13.40;99.90;;;;;;5063329;28;20028;-57
2023/10/26 10:45:30;;;;;;;19.23;11.02;;;13.60;99.90;;;;;;5063340;28;20103;-51
2023/10/26 10:47:57;;;;;;;16.00;10.68;;;13.70;99.90;;;;;;5061028;28;20103;-56
2023/10/26 10:50:24;;;;;;;17.77;9.45;;;13.70;99.90;;;;;;5056696;28;20021;-58
2023/10/26 10:52:55;;;;;;;12.48;7.72;;;13.60;99.90;;;;;;5064918;28;20475;-54
2023/10/26 10:55:30;;;;;;;12.43;8.32;;;13.50;99.90;;;;;;5060476;28;20051;-56
2023/10/26 10:57:58;;;;;;;14.90;8.88;;;13.50;99.90;;;;;;5068558;28;20090;-55
2023/10/26 11:00:40;;;;;;;11.98;8.70;;;13.40;99.90;;;;;;5058619;28;20491;-54
2023/10/26 11:03:06;;;;;;;15.00;8.77;;;13.60;99.90;;;;;;5061303;28;20033;-56
2023/10/26 11:05:36;;;;;;;16.33;9.82;;;13.40;99.90;;;;;;5067940;28;20032;-53
2023/10/26 11:08:02;;;;;;;18.00;10.45;;;13.30;99.90;;;;;;5060787;28;20082;-52
2023/10/26 11:10:28;;;;;;;18.38;11.68;;;13.20;99.90;;;;;;5066862;28;20567;-54
2023/10/26 11:12:53;;;;;;;17.05;11.02;;;13.30;99.90;;;;;;5059694;28;20032;-56
2023/10/26 11:15:19;;;;;;;16.55;10.60;;;13.20;99.90;;;;;;5065664;28;20070;-55
2023/10/26 11:17:45;;;;;;;18.05;12.07;;;13.10;99.90;;;;;;5063382;28;20127;-56
2023/10/26 11:20:34;;;;;;;20.60;11.07;;;13.10;99.90;;;;;;5058805;28;20028;-54
2023/10/26 11:22:59;;;;;;;19.60;12.38;;;13.10;99.90;;;;;;5052693;28;20020;-57
2023/10/26 11:25:26;;;;;;;26.00;14.70;;;13.10;99.90;;;;;;5064518;28;20047;-58
2023/10/26 11:27:51;;;;;;;20.90;12.65;;;13.10;99.90;;;;;;5056346;28;20036;-57
2023/10/26 11:30:17;;;;;;;22.63;13.55;;;13.10;99.90;;;;;;5057422;28;20036;-55
2023/10/26 11:32:44;;;;;;;28.65;15.02;;;13.20;99.90;;;;;;5052337;28;20029;-57
2023/10/26 11:35:13;;;;;;;28.27;15.52;;;13.30;99.90;;;;;;5052863;28;20025;-57
2023/10/26 11:37:44;;;;;;;27.75;14.95;;;13.40;99.90;;;;;;5057742;28;20383;-55
2023/10/26 11:40:14;;;;;;;23.35;14.55;;;13.70;99.90;;;;;;5061447;28;20155;-53
2023/10/26 11:42:54;;;;;;;23.25;12.77;;;14.00;99.90;;;;;;5062459;28;20040;-57
2023/10/26 11:45:22;;;;;;;22.48;13.77;;;14.20;99.90;;;;;;5058802;28;20506;-56
2023/10/26 11:47:52;;;;;;;20.98;11.80;;;14.80;99.90;;;;;;5064274;28;20539;-58
2023/10/26 11:50:25;;;;;;;17.58;11.25;;;15.00;99.90;;;;;;5065639;28;20682;-52
2023/10/26 11:53:11;;;;;;;17.33;11.55;;;14.80;99.90;;;;;;5068765;28;20583;-58
2023/10/26 11:55:37;;;;;;;17.05;10.20;;;14.90;99.90;;;;;;5057250;28;20064;-58
2023/10/26 11:58:03;;;;;;;12.20;8.82;;;14.70;99.90;;;;;;5061299;28;20036;-58
2023/10/26 12:00:30;;;;;;;14.20;8.02;;;14.20;99.90;;;;;;5061536;28;20025;-54
2023/10/26 12:02:59;;;;;;;11.50;7.75;;;14.00;99.90;;;;;;5068536;28;20035;-56
2023/10/26 12:05:25;;;;;;;10.02;7.90;;;14.00;99.90;;;;;;5069326;28;20028;-56
2023/10/26 12:07:51;;;;;;;8.27;6.40;;;13.90;99.90;;;;;;5068130;28;20025;-58
2023/10/26 12:10:19;;;;;;;9.05;6.13;;;13.60;99.90;;;;;;5061383;28;20059;-54
2023/10/26 12:12:45;;;;;;;11.50;5.38;;;13.60;99.90;;;;;;5067541;28;20025;-54
2023/10/26 12:15:11;;;;;;;13.70;6.10;;;13.50;99.90;;;;;;5065670;28;20033;-58
2023/10/26 12:17:36;;;;;;;10.82;5.65;;;13.50;99.90;;;;;;5064346;28;20040;-57
2023/10/26 12:20:03;;;;;;;7.63;6.32;;;13.50;99.90;;;;;;5066065;28;20486;-56
2023/10/26 12:22:29;;;;;;;13.38;5.97;;;13.20;99.90;;;;;;5073939;28;20020;-59
2023/10/26 12:24:54;;;;;;;13.68;6.97;;;13.30;99.90;;;;;;5060948;28;20039;-54
2023/10/26 12:27:20;;;;;;;8.32;5.50;;;13.30;99.90;;;;;;5064766;28;20058;-54